Glendive, MT

6:42 AM MDT on July 29, 2016 (GMT -0600)
Dawson Community

Weather History for KGDV - November, 2010

Change the Weather History Date:

Friday, November 19, 2010

  Actual Average Record
Temperature  
Mean Temperature 10 °F -  
Max Temperature 15 °F 36 °F 64 °F (2003)
Min Temperature 6 °F 18 °F 1 °F (2011)
Degree Days  
Heating Degree Days 54    
Moisture  
Dew Point 2 °F    
Average Humidity 65    
Maximum Humidity 79    
Minimum Humidity 49    
Precipitation  
Precipitation 0.00 in - - ()
Sea Level Pressure  
Sea Level Pressure 30.07 in    
Wind  
Wind Speed 13 mph (NNW)    
Max Wind Speed 20 mph    
Max Gust Speed 30 mph    
Visibility 10 miles    
Events      
Averages and records for this station are not official NWS values.
T = Trace of Precipitation, MM = Missing Value Source: NWS Daily Summary

Daily Weather History Graph

Daily Weather History Graph

Search for Another Location

Airport or City:

Trip Planner

Search our weather history database for the weather conditions in past years. The results will help you decide how hot, cold, wet, or windy it might be!

Date:

Astronomy

Nov. 19, 2010 Rise Set
Actual Time 7:08 AM MST 4:20 PM MST
Civil Twilight 6:35 AM MST 4:53 PM MST
Nautical Twilight 5:57 AM MST 5:31 PM MST
Astronomical Twilight 5:21 AM MST 6:07 PM MST
Moon 2:53 PM MST (11/19) 5:06 AM MST (11/19)
Length of Visible Light 10h 18m
Length of Day
9h 11m
Waxing Gibbous, 96% of the Moon is Illuminated
Nov 19
Waxing Gibbous
Nov 21
Full
Nov 28
Last Quarter
Dec 5
New
Dec 13
First Quarter

Hourly Weather History & Observations

Time (MST) Temp. Windchill Dew Point Humidity Pressure Visibility Wind Dir Wind Speed Gust Speed Precip Events Conditions
12:15 AM 15.8 °F -1.1 °F 6.8 °F 68% 29.96 in 10.0 mi WNW 19.6 mph 27.6 mph N/A   Scattered Clouds
12:35 AM 14.0 °F -3.4 °F 6.8 °F 73% 29.95 in 10.0 mi NW 19.6 mph 27.6 mph N/A   Clear
12:55 AM 12.2 °F -5.8 °F 5.0 °F 73% 29.96 in 10.0 mi WNW 19.6 mph 29.9 mph N/A   Clear
1:15 AM 12.2 °F -4.8 °F 5.0 °F 73% 29.98 in 10.0 mi NW 17.3 mph 27.6 mph N/A   Clear
1:35 AM 12.2 °F -2.5 °F 6.8 °F 79% 29.98 in 10.0 mi NW 12.7 mph - N/A   Partly Cloudy
1:55 AM 12.2 °F -4.8 °F 5.0 °F 73% 29.99 in 10.0 mi WNW 17.3 mph - N/A   Partly Cloudy
2:15 AM 12.2 °F -5.8 °F 5.0 °F 73% 29.99 in 10.0 mi WNW 19.6 mph - N/A   Partly Cloudy
2:35 AM 12.2 °F -1.8 °F 5.0 °F 73% 30.01 in 10.0 mi NW 11.5 mph - N/A   Partly Cloudy
2:55 AM 12.2 °F -4.3 °F 3.2 °F 67% 30.02 in 10.0 mi NW 16.1 mph - N/A   Mostly Cloudy
3:15 AM 12.2 °F -3.1 °F 3.2 °F 67% 30.02 in 10.0 mi NW 13.8 mph - N/A   Scattered Clouds
3:35 AM 10.4 °F -6.0 °F 3.2 °F 73% 30.03 in 10.0 mi NW 15.0 mph - N/A   Clear
3:55 AM 10.4 °F -2.4 °F 3.2 °F 73% 30.03 in 10.0 mi NW 9.2 mph - N/A   Partly Cloudy
4:15 AM 10.4 °F -3.3 °F 3.2 °F 73% 30.04 in 10.0 mi NW 10.4 mph - N/A   Scattered Clouds
4:35 AM 10.4 °F -7.2 °F 3.2 °F 73% 30.03 in 10.0 mi NW 17.3 mph 23.0 mph N/A   Clear
4:55 AM 10.4 °F -3.3 °F 3.2 °F 73% 30.05 in 10.0 mi NW 10.4 mph 16.1 mph N/A   Clear
5:15 AM 10.4 °F -6.6 °F 1.4 °F 67% 30.05 in 10.0 mi NW 16.1 mph - N/A   Clear
5:35 AM 8.6 °F -4.7 °F 1.4 °F 73% 30.06 in 10.0 mi NW 9.2 mph - N/A   Clear
5:55 AM 8.6 °F -6.3 °F -0.4 °F 67% 30.06 in 10.0 mi NNW 11.5 mph - N/A   Clear
6:15 AM 8.6 °F -6.3 °F 1.4 °F 73% 30.06 in 10.0 mi NNW 11.5 mph - N/A   Clear
6:35 AM 8.6 °F -5.5 °F -0.4 °F 67% 30.07 in 10.0 mi NNW 10.4 mph - N/A   Clear
6:55 AM 8.6 °F -7.7 °F 1.4 °F 73% 30.08 in 10.0 mi NNW 13.8 mph - N/A   Clear
7:15 AM 6.8 °F -6.9 °F -0.4 °F 72% 30.08 in 10.0 mi NNW 9.2 mph - N/A   Clear
7:35 AM 6.8 °F -10.0 °F -0.4 °F 72% 30.08 in 10.0 mi NNW 13.8 mph - N/A   Clear
7:55 AM 8.6 °F -7.0 °F 1.4 °F 73% 30.09 in 10.0 mi NNW 12.7 mph - N/A   Clear
8:15 AM 8.6 °F -3.7 °F -0.4 °F 67% 30.10 in 10.0 mi WNW 8.1 mph - N/A   Clear
8:35 AM 8.6 °F -2.6 °F -0.4 °F 67% 30.11 in 10.0 mi NNW 6.9 mph - N/A   Clear
8:55 AM 8.6 °F -1.3 °F -0.4 °F 67% 30.11 in 10.0 mi NNW 5.8 mph - N/A   Clear
9:15 AM 8.6 °F -2.6 °F 1.4 °F 73% 30.11 in 10.0 mi North 6.9 mph - N/A   Partly Cloudy
9:35 AM 8.6 °F -1.3 °F -0.4 °F 67% 30.11 in 10.0 mi NW 5.8 mph - N/A   Clear
9:55 AM 10.4 °F -1.5 °F 1.4 °F 67% 30.11 in 10.0 mi NNW 8.1 mph - N/A   Clear
10:15 AM 10.4 °F -1.5 °F -0.4 °F 62% 30.13 in 10.0 mi NNW 8.1 mph - N/A   Clear
10:35 AM 10.4 °F -1.5 °F -0.4 °F 62% 30.13 in 10.0 mi NW 8.1 mph - N/A   Clear
10:55 AM 10.4 °F 0.8 °F -0.4 °F 62% 30.12 in 10.0 mi NW 5.8 mph - N/A   Clear
11:15 AM 12.2 °F 1.7 °F 1.4 °F 62% 30.11 in 10.0 mi NNW 6.9 mph - N/A   Clear
11:35 AM 12.2 °F - -0.4 °F 57% 30.11 in 10.0 mi Calm Calm - N/A   Clear
11:55 AM 12.2 °F 2.9 °F 1.4 °F 62% 30.11 in 10.0 mi North 5.8 mph - N/A   Clear
12:15 PM 12.2 °F 6.1 °F 1.4 °F 62% 30.10 in 10.0 mi NNE 3.5 mph - N/A   Clear
12:35 PM 14.0 °F 3.9 °F 1.4 °F 57% 30.09 in 10.0 mi North 6.9 mph - N/A   Clear
12:55 PM 15.8 °F 8.6 °F 1.4 °F 53% 30.10 in 10.0 mi North 4.6 mph - N/A   Clear
1:15 PM 15.8 °F 8.6 °F 1.4 °F 53% 30.10 in 10.0 mi NE 4.6 mph - N/A   Clear
1:35 PM 15.8 °F 4.2 °F 3.2 °F 58% 30.10 in 10.0 mi North 9.2 mph - N/A   Clear
1:55 PM 15.8 °F 7.2 °F -0.4 °F 49% 30.10 in 10.0 mi NNE 5.8 mph - N/A   Clear
2:15 PM 15.8 °F 5.1 °F 1.4 °F 53% 30.10 in 10.0 mi NNE 8.1 mph - N/A   Partly Cloudy
2:35 PM 15.8 °F 6.1 °F -0.4 °F 49% 30.10 in 10.0 mi NNE 6.9 mph - N/A   Scattered Clouds
2:55 PM 15.8 °F 7.2 °F 1.4 °F 53% 30.10 in 10.0 mi ENE 5.8 mph - N/A   Mostly Cloudy
3:15 PM 15.8 °F 7.2 °F 1.4 °F 53% 30.10 in 10.0 mi ENE 5.8 mph - N/A   Mostly Cloudy
3:35 PM 15.8 °F 5.1 °F 3.2 °F 58% 30.10 in 10.0 mi NNE 8.1 mph - N/A   Scattered Clouds
3:55 PM 15.8 °F 6.1 °F 1.4 °F 53% 30.10 in 10.0 mi NE 6.9 mph - N/A   Scattered Clouds
4:15 PM 15.8 °F 2.7 °F 3.2 °F 58% 30.11 in 10.0 mi ENE 11.5 mph - N/A   Mostly Cloudy
4:35 PM 14.0 °F 3.9 °F 1.4 °F 57% 30.11 in 10.0 mi ENE 6.9 mph - N/A   Mostly Cloudy
4:55 PM 14.0 °F 2.0 °F 3.2 °F 62% 30.12 in 10.0 mi ENE 9.2 mph - N/A   Overcast
5:15 PM 14.0 °F 0.5 °F 3.2 °F 62% 30.12 in 10.0 mi ENE 11.5 mph - N/A   Overcast
5:35 PM 12.2 °F -1.0 °F 3.2 °F 67% 30.12 in 10.0 mi NE 10.4 mph - N/A   Overcast
5:55 PM 12.2 °F -2.5 °F 1.4 °F 62% 30.11 in 10.0 mi ENE 12.7 mph - N/A   Overcast
6:15 PM 12.2 °F -1.0 °F 3.2 °F 67% 30.12 in 10.0 mi ENE 10.4 mph - N/A   Overcast
6:35 PM 12.2 °F -1.0 °F 3.2 °F 67% 30.12 in 10.0 mi ENE 10.4 mph - N/A   Overcast
6:55 PM 12.2 °F -1.0 °F 3.2 °F 67% 30.12 in 10.0 mi ENE 10.4 mph - N/A   Overcast
7:15 PM 12.2 °F -1.8 °F 3.2 °F 67% 30.12 in 10.0 mi East 11.5 mph - N/A   Overcast
7:35 PM 12.2 °F -1.8 °F 3.2 °F 67% 30.12 in 10.0 mi ENE 11.5 mph - N/A   Overcast
7:55 PM 12.2 °F -1.8 °F 3.2 °F 67% 30.12 in 10.0 mi ENE 11.5 mph - N/A   Overcast
8:15 PM 12.2 °F -3.1 °F 3.2 °F 67% 30.12 in 10.0 mi ENE 13.8 mph - N/A   Overcast
8:35 PM 12.2 °F -3.7 °F 3.2 °F 67% 30.12 in 10.0 mi East 15.0 mph - N/A   Overcast
8:55 PM 12.2 °F -3.7 °F 3.2 °F 67% 30.12 in 10.0 mi ENE 15.0 mph - N/A   Overcast
9:15 PM 12.2 °F -1.8 °F 3.2 °F 67% 30.13 in 10.0 mi East 11.5 mph - N/A   Overcast
9:35 PM 12.2 °F -3.7 °F 5.0 °F 73% 30.12 in 5.0 mi ENE 15.0 mph - N/A   Overcast
9:55 PM 12.2 °F -3.1 °F 5.0 °F 73% 30.13 in 5.0 mi ENE 13.8 mph - N/A   Overcast
10:15 PM 10.4 °F -4.1 °F 6.8 °F 85% 30.13 in 6.0 mi ENE 11.5 mph - N/A   Overcast
10:35 PM 12.2 °F -2.5 °F 6.8 °F 79% 30.13 in 6.0 mi ENE 12.7 mph - N/A   Overcast
10:55 PM 10.4 °F -6.6 °F 6.8 °F 85% 30.13 in 5.0 mi ENE 16.1 mph - N/A   Overcast
11:15 PM 10.4 °F -6.6 °F 6.8 °F 85% 30.13 in 3.0 mi ENE 16.1 mph - N/A   Overcast
11:35 PM 10.4 °F -6.0 °F 6.8 °F 85% 30.13 in 2.5 mi East 15.0 mph 18.4 mph N/A   Overcast
11:55 PM 10.4 °F -5.4 °F 6.8 °F 85% 30.12 in 2.5 mi ENE 13.8 mph - N/A   Overcast